createdAt,value
2019-01-10T00:00:39.296Z,22.00
2019-01-10T00:03:33.676Z,22.00
2019-01-10T00:06:28.477Z,22.00
2019-01-10T00:09:22.967Z,22.00
2019-01-10T00:12:17.261Z,22.00
2019-01-10T00:15:13.409Z,22.00
2019-01-10T00:18:07.257Z,22.00
2019-01-10T00:21:07.046Z,21.90
2019-01-10T00:24:03.713Z,21.90
2019-01-10T00:26:56.593Z,21.90
2019-01-10T00:29:51.676Z,22.00
2019-01-10T00:32:48.520Z,22.00
2019-01-10T00:35:42.806Z,22.00
2019-01-10T00:38:45.201Z,22.00
2019-01-10T00:41:39.910Z,22.00
2019-01-10T00:44:35.492Z,22.00
2019-01-10T00:47:29.678Z,21.90
2019-01-10T00:50:25.066Z,21.90
2019-01-10T00:53:19.065Z,21.90
2019-01-10T00:56:12.923Z,21.90
2019-01-10T00:59:06.926Z,22.00
2019-01-10T01:02:01.311Z,22.00
2019-01-10T01:04:55.496Z,21.90
2019-01-10T01:07:49.783Z,21.90
2019-01-10T01:10:44.069Z,21.90
2019-01-10T01:13:42.895Z,22.00
2019-01-10T01:16:36.325Z,21.90
2019-01-10T01:19:39.643Z,21.90
2019-01-10T01:22:33.709Z,21.90
2019-01-10T01:25:27.784Z,22.00
2019-01-10T01:28:24.944Z,22.00
2019-01-10T01:31:19.641Z,21.90
2019-01-10T01:34:17.300Z,21.90
2019-01-10T01:37:14.770Z,21.90
2019-01-10T01:40:09.469Z,21.90
2019-01-10T01:43:07.402Z,21.90
2019-01-10T01:45:58.731Z,21.90
2019-01-10T01:48:56.769Z,21.90
2019-01-10T01:51:50.912Z,21.90
2019-01-10T01:54:45.011Z,21.90
2019-01-10T01:57:39.122Z,21.80
2019-01-10T02:00:35.934Z,21.80
2019-01-10T02:03:29.895Z,21.90
2019-01-10T02:06:24.490Z,21.90
2019-01-10T02:09:18.822Z,21.90
2019-01-10T02:12:13.069Z,21.90
2019-01-10T02:15:10.302Z,21.80
2019-01-10T02:18:02.309Z,21.60
2019-01-10T02:20:57.025Z,21.40
2019-01-10T02:23:51.804Z,21.20
2019-01-10T02:26:45.943Z,21.10
2019-01-10T02:29:40.658Z,21.10
2019-01-10T02:32:34.725Z,21.10
2019-01-10T02:35:32.266Z,21.10
2019-01-10T02:38:26.704Z,21.10
2019-01-10T02:41:21.263Z,21.00
2019-01-10T02:44:15.385Z,21.00
2019-01-10T02:47:10.214Z,21.00
2019-01-10T02:50:06.906Z,21.00
2019-01-10T02:53:01.678Z,21.00
2019-01-10T02:55:56.138Z,21.00
2019-01-10T02:58:53.436Z,21.00
2019-01-10T03:01:56.682Z,21.00
2019-01-10T03:04:50.038Z,21.00
2019-01-10T03:07:44.509Z,21.00
2019-01-10T03:10:38.867Z,21.20
2019-01-10T03:13:36.870Z,21.30
2019-01-10T03:16:29.167Z,21.40
2019-01-10T03:19:23.876Z,21.50
2019-01-10T03:22:24.305Z,21.50
2019-01-10T03:25:17.340Z,21.50
2019-01-10T03:28:12.368Z,21.60
2019-01-10T03:31:11.462Z,21.60
2019-01-10T03:34:06.035Z,21.60
2019-01-10T03:37:01.341Z,21.60
2019-01-10T03:39:56.380Z,21.60
2019-01-10T03:42:53.423Z,21.60
2019-01-10T03:45:48.324Z,21.70
2019-01-10T03:48:45.674Z,21.70
2019-01-10T03:51:40.063Z,21.70
2019-01-10T03:54:34.966Z,21.80
2019-01-10T03:57:29.947Z,21.80
2019-01-10T04:00:28.440Z,21.80
2019-01-10T04:03:23.263Z,21.80
2019-01-10T04:06:18.541Z,21.80
2019-01-10T04:09:17.639Z,21.80
2019-01-10T04:12:12.345Z,21.80
2019-01-10T04:15:07.135Z,21.80
2019-01-10T04:18:01.464Z,21.90
2019-01-10T04:20:55.815Z,21.90
2019-01-10T04:23:50.526Z,21.90
2019-01-10T04:26:46.221Z,21.90
2019-01-10T04:29:41.763Z,21.90
2019-01-10T04:32:36.024Z,21.90
2019-01-10T04:35:30.110Z,22.00
2019-01-10T04:38:24.899Z,21.90
2019-01-10T04:41:23.015Z,22.00
2019-01-10T04:44:16.877Z,22.00
2019-01-10T04:47:11.441Z,21.90
2019-01-10T04:50:15.630Z,22.00
2019-01-10T04:53:15.795Z,21.90
2019-01-10T04:56:14.902Z,21.90
2019-01-10T04:59:12.038Z,21.80
2019-01-10T05:02:18.324Z,21.80
2019-01-10T05:05:07.273Z,21.90
2019-01-10T05:08:51.145Z,21.90
2019-01-10T05:11:41.846Z,21.90
2019-01-10T05:14:35.592Z,21.90
2019-01-10T05:20:39.517Z,22.00
2019-01-10T05:23:35.503Z,22.00
2019-01-10T05:26:31.386Z,22.00
2019-01-10T05:29:31.221Z,22.00
2019-01-10T05:32:26.181Z,22.00
2019-01-10T05:35:27.560Z,22.00
2019-01-10T05:38:33.891Z,22.00
2019-01-10T05:48:47.104Z,22.20
2019-01-10T05:52:11.172Z,22.20
2019-01-10T05:55:13.165Z,22.20
2019-01-10T05:58:41.255Z,22.20
2019-01-10T06:01:38.298Z,22.30
2019-01-10T06:04:35.250Z,22.30
2019-01-10T06:14:35.724Z,22.50
2019-01-10T06:17:29.669Z,22.40
2019-01-10T06:23:28.445Z,22.50
2019-01-10T06:26:56.832Z,22.50
2019-01-10T06:29:46.360Z,22.50
2019-01-10T06:32:50.889Z,22.60
2019-01-10T06:35:50.108Z,22.60
2019-01-10T06:42:19.104Z,22.70
2019-01-10T06:45:38.024Z,22.60
2019-01-10T06:49:05.415Z,22.60
2019-01-10T06:52:38.618Z,22.70
2019-01-10T06:55:32.808Z,22.60
2019-01-10T06:58:50.171Z,22.60
2019-01-10T07:01:47.349Z,22.60
2019-01-10T07:05:02.410Z,22.60
2019-01-10T07:07:57.082Z,22.60
2019-01-10T07:10:55.570Z,22.60
2019-01-10T07:14:00.385Z,22.50
2019-01-10T07:17:01.275Z,22.60
2019-01-10T07:20:06.822Z,22.60
2019-01-10T07:30:47.447Z,22.60
2019-01-10T07:37:44.989Z,22.70
2019-01-10T07:41:11.100Z,22.70
2019-01-10T07:44:20.769Z,22.70
2019-01-10T07:54:34.262Z,22.60
2019-01-10T08:01:18.696Z,22.70
2019-01-10T08:12:25.561Z,22.70
2019-01-10T08:14:47.065Z,22.70
2019-01-10T08:18:03.898Z,22.60
2019-01-10T08:25:06.794Z,22.80
2019-01-10T08:28:19.917Z,22.80
2019-01-10T08:31:22.758Z,22.80
2019-01-10T08:34:40.239Z,22.80
2019-01-10T08:38:08.945Z,22.80
2019-01-10T08:44:52.022Z,22.80
2019-01-10T08:47:46.444Z,22.80
2019-01-10T08:51:06.727Z,22.80
2019-01-10T08:54:13.466Z,22.90
2019-01-10T08:57:19.857Z,22.90
2019-01-10T09:00:43.790Z,22.90
2019-01-10T09:07:03.647Z,22.80
2019-01-10T09:10:06.593Z,22.80
2019-01-10T09:13:10.052Z,22.80
2019-01-10T09:16:29.621Z,22.80
2019-01-10T09:19:42.426Z,22.70
2019-01-10T09:26:37.650Z,22.70
2019-01-10T09:44:42.026Z,22.90
2019-01-10T09:47:40.106Z,22.90
2019-01-10T09:50:48.912Z,22.90
2019-01-10T09:53:43.339Z,22.80
2019-01-10T09:56:37.686Z,22.90
2019-01-10T09:59:35.933Z,22.90
2019-01-10T10:02:30.559Z,22.90
2019-01-10T10:05:26.202Z,22.90
2019-01-10T10:08:20.606Z,22.80
2019-01-10T10:11:14.279Z,22.80
2019-01-10T10:14:08.680Z,22.80
2019-01-10T10:17:05.519Z,22.80
2019-01-10T10:19:59.751Z,22.90
2019-01-10T10:22:53.307Z,22.80
2019-01-10T10:25:48.908Z,22.90
2019-01-10T10:28:44.620Z,22.90
2019-01-10T10:31:39.000Z,22.90
2019-01-10T10:34:35.467Z,22.90
2019-01-10T10:37:29.679Z,22.90
2019-01-10T10:41:03.888Z,22.90
2019-01-10T10:43:58.376Z,23.00
2019-01-10T10:46:56.362Z,22.90
2019-01-10T10:49:50.848Z,23.00
2019-01-10T10:52:44.736Z,23.00
2019-01-10T10:55:52.731Z,23.00
2019-01-10T10:58:48.178Z,22.90
2019-01-10T11:01:44.346Z,23.00
2019-01-10T11:04:58.441Z,23.00
2019-01-10T11:07:55.408Z,23.00
2019-01-10T11:11:11.851Z,23.00
2019-01-10T11:36:21.246Z,22.90
2019-01-10T11:43:42.224Z,22.90
2019-01-10T11:56:38.529Z,22.90
